Hovedside
METAR-TAF:

METAR-TAF

Lufthavner :

Skellefteå lufthavn

Skellefteå, Sverige

breddegrad: 64-38N, lengdegrad: 021-05E, høyde over havet: 49 m

Gjeldene værobservasjon

Denne rapporten ble laget for 20 minutter siden, klokken 02:50 UTC
Vind 10 kt fra Vest
Temperatur 1°C
Luftfuktighet 75%
Trykk 999 hPa
Sikt 10 km eller mer

METAR: ESNS 090250Z AUTO 26010KT 9999 NCD 01/M03 Q0999

Tid: 05:10 (03:10 UTC)

Varsel

Denne rapporten ble laget for 9 timer og 40 minutter siden, klokken 17:30 UTC
Varsel gyldig fra 08. klokken 18 UTC til 08. klokken 22 UTC
Vind 10 kt fra Vest-sørvest
Sikt 10 km eller mer
ingen skyer under 1500 m og ingen bygeskyer

TAF: ESNS 081730Z 0818/0822 25010KT CAVOK

Værobservasjoner og værvarsel for over 4000 flyplasser (METAR- og TAF-rapporter).

Tilgjengelige stasjoner er representert av de røde og gule prikkene på kartet.

Hold musepekeren over prikken for å se navnet på stasjonen.

Klikk så for å se værobservasjoner og -varsler.

For å forandre kartet kan du klikke på den grønne knappen med svart kryss for å zoome inn, på den grønne knappen med strek for å zoome ut, eller på de grønne pilene for å se tilstøtende kart.


METAR-TAF: